sensor_id;sensor_type;location;lat;lon;timestamp;P1;durP1;ratioP1;P2;durP2;ratioP2
4428;SDS011;2227;47.810;8.810;2022-10-31T04:47:17;14.60;;;6.53;;
4428;SDS011;2227;47.810;8.810;2022-10-31T04:49:44;20.38;;;7.85;;
4428;SDS011;2227;47.810;8.810;2022-10-31T04:52:10;18.85;;;7.30;;
4428;SDS011;2227;47.810;8.810;2022-10-31T04:54:37;17.60;;;7.85;;
4428;SDS011;2227;47.810;8.810;2022-10-31T04:57:04;21.33;;;7.50;;
4428;SDS011;2227;47.810;8.810;2022-10-31T04:59:32;19.20;;;8.43;;
4428;SDS011;2227;47.810;8.810;2022-10-31T05:01:58;20.30;;;8.85;;
4428;SDS011;2227;47.810;8.810;2022-10-31T05:04:25;14.40;;;8.63;;
4428;SDS011;2227;47.810;8.810;2022-10-31T05:06:52;22.00;;;9.00;;
4428;SDS011;2227;47.810;8.810;2022-10-31T05:09:19;25.13;;;9.48;;
4428;SDS011;2227;47.810;8.810;2022-10-31T05:11:45;21.48;;;9.30;;
4428;SDS011;2227;47.810;8.810;2022-10-31T05:14:12;19.48;;;9.55;;
4428;SDS011;2227;47.810;8.810;2022-10-31T05:16:39;21.20;;;9.73;;
4428;SDS011;2227;47.810;8.810;2022-10-31T05:19:05;27.15;;;9.80;;
4428;SDS011;2227;47.810;8.810;2022-10-31T05:21:32;19.38;;;9.52;;
4428;SDS011;2227;47.810;8.810;2022-10-31T05:23:59;17.73;;;9.80;;
4428;SDS011;2227;47.810;8.810;2022-10-31T05:26:26;17.80;;;10.68;;
4428;SDS011;2227;47.810;8.810;2022-10-31T05:28:52;16.65;;;10.48;;
4428;SDS011;2227;47.810;8.810;2022-10-31T05:31:19;15.13;;;9.73;;
4428;SDS011;2227;47.810;8.810;2022-10-31T05:33:46;18.13;;;10.30;;
4428;SDS011;2227;47.810;8.810;2022-10-31T05:36:13;16.45;;;9.95;;
4428;SDS011;2227;47.810;8.810;2022-10-31T05:38:39;11.63;;;8.75;;
4428;SDS011;2227;47.810;8.810;2022-10-31T05:41:06;17.33;;;9.65;;
4428;SDS011;2227;47.810;8.810;2022-10-31T05:43:33;16.88;;;10.02;;
4428;SDS011;2227;47.810;8.810;2022-10-31T05:45:59;15.82;;;9.65;;
4428;SDS011;2227;47.810;8.810;2022-10-31T05:48:26;15.88;;;9.73;;
4428;SDS011;2227;47.810;8.810;2022-10-31T05:50:53;15.25;;;8.82;;
4428;SDS011;2227;47.810;8.810;2022-10-31T05:53:20;15.43;;;9.32;;
4428;SDS011;2227;47.810;8.810;2022-10-31T05:55:47;17.00;;;10.43;;
4428;SDS011;2227;47.810;8.810;2022-10-31T05:58:14;15.00;;;9.55;;
4428;SDS011;2227;47.810;8.810;2022-10-31T06:00:40;21.08;;;10.73;;
4428;SDS011;2227;47.810;8.810;2022-10-31T06:03:08;19.23;;;10.65;;
4428;SDS011;2227;47.810;8.810;2022-10-31T06:05:35;16.95;;;9.85;;
4428;SDS011;2227;47.810;8.810;2022-10-31T06:08:02;20.38;;;10.50;;
4428;SDS011;2227;47.810;8.810;2022-10-31T06:10:29;16.73;;;10.07;;
4428;SDS011;2227;47.810;8.810;2022-10-31T06:12:56;21.00;;;9.93;;
4428;SDS011;2227;47.810;8.810;2022-10-31T06:15:23;20.08;;;9.27;;
4428;SDS011;2227;47.810;8.810;2022-10-31T06:18:04;17.42;;;9.63;;
4428;SDS011;2227;47.810;8.810;2022-10-31T06:20:32;13.85;;;8.52;;
4428;SDS011;2227;47.810;8.810;2022-10-31T06:22:59;19.17;;;8.98;;
4428;SDS011;2227;47.810;8.810;2022-10-31T06:25:27;14.38;;;8.40;;
4428;SDS011;2227;47.810;8.810;2022-10-31T06:27:54;13.88;;;7.97;;
4428;SDS011;2227;47.810;8.810;2022-10-31T06:30:21;14.98;;;7.60;;
4428;SDS011;2227;47.810;8.810;2022-10-31T06:32:47;14.73;;;7.40;;
4428;SDS011;2227;47.810;8.810;2022-10-31T06:35:15;20.90;;;6.88;;
4428;SDS011;2227;47.810;8.810;2022-10-31T06:37:43;12.20;;;6.43;;
4428;SDS011;2227;47.810;8.810;2022-10-31T06:40:17;15.15;;;7.53;;
4428;SDS011;2227;47.810;8.810;2022-10-31T06:42:43;10.30;;;6.30;;
4428;SDS011;2227;47.810;8.810;2022-10-31T06:45:10;12.23;;;7.05;;
4428;SDS011;2227;47.810;8.810;2022-10-31T06:47:37;14.27;;;7.50;;
4428;SDS011;2227;47.810;8.810;2022-10-31T06:50:24;21.88;;;7.53;;
4428;SDS011;2227;47.810;8.810;2022-10-31T06:52:51;17.38;;;8.18;;
4428;SDS011;2227;47.810;8.810;2022-10-31T06:55:18;14.02;;;7.88;;
4428;SDS011;2227;47.810;8.810;2022-10-31T06:57:50;12.90;;;7.90;;
4428;SDS011;2227;47.810;8.810;2022-10-31T07:00:20;19.83;;;7.88;;
4428;SDS011;2227;47.810;8.810;2022-10-31T07:02:56;14.77;;;7.57;;
4428;SDS011;2227;47.810;8.810;2022-10-31T07:05:24;21.83;;;8.15;;
4428;SDS011;2227;47.810;8.810;2022-10-31T07:07:52;16.35;;;6.88;;
4428;SDS011;2227;47.810;8.810;2022-10-31T07:10:20;21.65;;;7.80;;
4428;SDS011;2227;47.810;8.810;2022-10-31T07:12:47;17.50;;;7.05;;
4428;SDS011;2227;47.810;8.810;2022-10-31T07:15:13;18.90;;;7.40;;
4428;SDS011;2227;47.810;8.810;2022-10-31T07:17:40;17.30;;;7.65;;
4428;SDS011;2227;47.810;8.810;2022-10-31T07:20:07;16.13;;;7.40;;
4428;SDS011;2227;47.810;8.810;2022-10-31T07:22:35;19.98;;;8.52;;
4428;SDS011;2227;47.810;8.810;2022-10-31T07:25:02;23.73;;;9.00;;
4428;SDS011;2227;47.810;8.810;2022-10-31T07:27:41;20.73;;;8.90;;
4428;SDS011;2227;47.810;8.810;2022-10-31T07:30:09;27.33;;;13.07;;
4428;SDS011;2227;47.810;8.810;2022-10-31T07:32:41;16.75;;;8.60;;
4428;SDS011;2227;47.810;8.810;2022-10-31T07:35:09;19.13;;;9.35;;
4428;SDS011;2227;47.810;8.810;2022-10-31T07:37:43;19.23;;;9.15;;
4428;SDS011;2227;47.810;8.810;2022-10-31T07:40:10;19.25;;;9.00;;
4428;SDS011;2227;47.810;8.810;2022-10-31T07:42:38;16.42;;;8.07;;
4428;SDS011;2227;47.810;8.810;2022-10-31T07:45:06;16.52;;;8.77;;
4428;SDS011;2227;47.810;8.810;2022-10-31T07:47:41;15.63;;;8.48;;
4428;SDS011;2227;47.810;8.810;2022-10-31T07:50:09;17.65;;;9.23;;
4428;SDS011;2227;47.810;8.810;2022-10-31T07:52:37;19.85;;;8.80;;
4428;SDS011;2227;47.810;8.810;2022-10-31T07:55:04;21.10;;;9.63;;
4428;SDS011;2227;47.810;8.810;2022-10-31T07:57:31;23.88;;;10.32;;
4428;SDS011;2227;47.810;8.810;2022-10-31T08:00:00;21.40;;;10.10;;
4428;SDS011;2227;47.810;8.810;2022-10-31T08:02:27;19.30;;;10.57;;
4428;SDS011;2227;47.810;8.810;2022-10-31T08:04:53;18.27;;;9.82;;
4428;SDS011;2227;47.810;8.810;2022-10-31T08:07:26;18.55;;;9.88;;
4428;SDS011;2227;47.810;8.810;2022-10-31T08:09:53;20.50;;;10.77;;
4428;SDS011;2227;47.810;8.810;2022-10-31T08:12:20;27.77;;;10.70;;
4428;SDS011;2227;47.810;8.810;2022-10-31T08:14:47;17.17;;;10.73;;
4428;SDS011;2227;47.810;8.810;2022-10-31T08:17:14;29.23;;;11.75;;
4428;SDS011;2227;47.810;8.810;2022-10-31T08:19:41;35.80;;;12.10;;
4428;SDS011;2227;47.810;8.810;2022-10-31T08:22:07;25.80;;;11.60;;
4428;SDS011;2227;47.810;8.810;2022-10-31T08:24:34;18.52;;;11.23;;
4428;SDS011;2227;47.810;8.810;2022-10-31T08:27:01;38.42;;;23.33;;
4428;SDS011;2227;47.810;8.810;2022-10-31T08:29:28;25.45;;;13.18;;
4428;SDS011;2227;47.810;8.810;2022-10-31T08:31:55;34.28;;;12.25;;
4428;SDS011;2227;47.810;8.810;2022-10-31T08:34:24;20.20;;;11.75;;
4428;SDS011;2227;47.810;8.810;2022-10-31T08:36:51;31.33;;;12.20;;
4428;SDS011;2227;47.810;8.810;2022-10-31T08:39:18;35.70;;;13.35;;
4428;SDS011;2227;47.810;8.810;2022-10-31T08:41:44;22.73;;;12.82;;
4428;SDS011;2227;47.810;8.810;2022-10-31T08:44:11;24.55;;;13.45;;
4428;SDS011;2227;47.810;8.810;2022-10-31T08:46:38;26.85;;;13.63;;
4428;SDS011;2227;47.810;8.810;2022-10-31T08:49:05;26.42;;;14.35;;
4428;SDS011;2227;47.810;8.810;2022-10-31T08:51:31;21.35;;;13.68;;
4428;SDS011;2227;47.810;8.810;2022-10-31T08:53:58;20.88;;;12.93;;
4428;SDS011;2227;47.810;8.810;2022-10-31T08:56:39;21.25;;;12.18;;
4428;SDS011;2227;47.810;8.810;2022-10-31T08:59:06;29.83;;;13.90;;
4428;SDS011;2227;47.810;8.810;2022-10-31T09:01:32;21.17;;;12.13;;
4428;SDS011;2227;47.810;8.810;2022-10-31T09:03:59;20.15;;;11.38;;
4428;SDS011;2227;47.810;8.810;2022-10-31T09:06:26;22.05;;;12.15;;
4428;SDS011;2227;47.810;8.810;2022-10-31T09:08:53;22.33;;;13.00;;
4428;SDS011;2227;47.810;8.810;2022-10-31T09:11:19;23.38;;;13.75;;
4428;SDS011;2227;47.810;8.810;2022-10-31T09:13:46;22.52;;;13.65;;
4428;SDS011;2227;47.810;8.810;2022-10-31T09:16:13;21.90;;;12.02;;
4428;SDS011;2227;47.810;8.810;2022-10-31T09:18:39;15.32;;;9.70;;
4428;SDS011;2227;47.810;8.810;2022-10-31T09:21:07;16.88;;;9.50;;
4428;SDS011;2227;47.810;8.810;2022-10-31T09:23:34;17.25;;;10.48;;
4428;SDS011;2227;47.810;8.810;2022-10-31T09:26:01;16.55;;;10.50;;
4428;SDS011;2227;47.810;8.810;2022-10-31T09:28:29;16.20;;;10.75;;
4428;SDS011;2227;47.810;8.810;2022-10-31T09:30:56;14.05;;;9.07;;
4428;SDS011;2227;47.810;8.810;2022-10-31T09:33:22;14.23;;;10.05;;
4428;SDS011;2227;47.810;8.810;2022-10-31T09:35:49;16.73;;;9.32;;
4428;SDS011;2227;47.810;8.810;2022-10-31T09:38:17;15.23;;;10.68;;
4428;SDS011;2227;47.810;8.810;2022-10-31T09:40:54;12.75;;;9.73;;
4428;SDS011;2227;47.810;8.810;2022-10-31T09:43:51;12.93;;;8.95;;
4428;SDS011;2227;47.810;8.810;2022-10-31T09:52:22;15.38;;;10.75;;
4428;SDS011;2227;47.810;8.810;2022-10-31T10:00:18;12.77;;;10.32;;
4428;SDS011;2227;47.810;8.810;2022-10-31T10:02:47;13.27;;;9.30;;
4428;SDS011;2227;47.810;8.810;2022-10-31T10:05:24;13.10;;;9.75;;
4428;SDS011;2227;47.810;8.810;2022-10-31T10:10:32;14.15;;;10.68;;
4428;SDS011;2227;47.810;8.810;2022-10-31T10:21:26;17.33;;;14.63;;
4428;SDS011;2227;47.810;8.810;2022-10-31T10:26:43;18.17;;;15.38;;
4428;SDS011;2227;47.810;8.810;2022-10-31T10:29:18;18.25;;;15.43;;
4428;SDS011;2227;47.810;8.810;2022-10-31T10:31:55;19.50;;;15.27;;
4428;SDS011;2227;47.810;8.810;2022-10-31T10:34:28;17.05;;;14.07;;
4428;SDS011;2227;47.810;8.810;2022-10-31T10:37:08;17.98;;;13.45;;
4428;SDS011;2227;47.810;8.810;2022-10-31T10:39:53;20.90;;;15.60;;
4428;SDS011;2227;47.810;8.810;2022-10-31T10:42:38;18.15;;;13.98;;
4428;SDS011;2227;47.810;8.810;2022-10-31T10:45:24;18.70;;;13.40;;
4428;SDS011;2227;47.810;8.810;2022-10-31T10:50:51;19.30;;;15.38;;
4428;SDS011;2227;47.810;8.810;2022-10-31T10:53:28;17.52;;;14.20;;
4428;SDS011;2227;47.810;8.810;2022-10-31T10:56:18;19.60;;;14.03;;
4428;SDS011;2227;47.810;8.810;2022-10-31T10:58:56;18.98;;;14.68;;
4428;SDS011;2227;47.810;8.810;2022-10-31T11:01:24;19.67;;;14.48;;
4428;SDS011;2227;47.810;8.810;2022-10-31T11:03:51;21.98;;;14.98;;
4428;SDS011;2227;47.810;8.810;2022-10-31T11:06:23;20.40;;;14.73;;
4428;SDS011;2227;47.810;8.810;2022-10-31T11:08:52;19.33;;;13.23;;
4428;SDS011;2227;47.810;8.810;2022-10-31T11:11:29;19.77;;;16.17;;
4428;SDS011;2227;47.810;8.810;2022-10-31T11:13:59;23.75;;;14.32;;
4428;SDS011;2227;47.810;8.810;2022-10-31T11:16:36;22.13;;;17.42;;
4428;SDS011;2227;47.810;8.810;2022-10-31T11:21:45;19.27;;;14.13;;
4428;SDS011;2227;47.810;8.810;2022-10-31T11:24:20;17.13;;;13.35;;
4428;SDS011;2227;47.810;8.810;2022-10-31T11:27:03;19.75;;;15.55;;
4428;SDS011;2227;47.810;8.810;2022-10-31T11:29:42;16.70;;;14.10;;
4428;SDS011;2227;47.810;8.810;2022-10-31T11:32:15;21.08;;;17.27;;
4428;SDS011;2227;47.810;8.810;2022-10-31T11:34:47;18.02;;;15.15;;
4428;SDS011;2227;47.810;8.810;2022-10-31T11:37:21;21.17;;;16.92;;
4428;SDS011;2227;47.810;8.810;2022-10-31T11:39:54;19.95;;;17.42;;
4428;SDS011;2227;47.810;8.810;2022-10-31T11:42:27;20.15;;;17.95;;
4428;SDS011;2227;47.810;8.810;2022-10-31T11:45:00;21.13;;;16.77;;
4428;SDS011;2227;47.810;8.810;2022-10-31T11:47:41;22.15;;;16.75;;
4428;SDS011;2227;47.810;8.810;2022-10-31T11:50:11;23.08;;;14.13;;
4428;SDS011;2227;47.810;8.810;2022-10-31T11:52:46;16.02;;;12.77;;
4428;SDS011;2227;47.810;8.810;2022-10-31T11:55:14;19.15;;;13.68;;
4428;SDS011;2227;47.810;8.810;2022-10-31T11:57:59;20.80;;;14.70;;
4428;SDS011;2227;47.810;8.810;2022-10-31T12:00:32;19.90;;;14.68;;
4428;SDS011;2227;47.810;8.810;2022-10-31T12:06:10;19.23;;;15.07;;
4428;SDS011;2227;47.810;8.810;2022-10-31T12:08:55;24.85;;;15.32;;
4428;SDS011;2227;47.810;8.810;2022-10-31T12:33:23;25.33;;;16.77;;
4428;SDS011;2227;47.810;8.810;2022-10-31T12:44:05;20.85;;;15.20;;
4428;SDS011;2227;47.810;8.810;2022-10-31T12:46:51;18.90;;;13.32;;
4428;SDS011;2227;47.810;8.810;2022-10-31T12:49:42;21.83;;;16.63;;
4428;SDS011;2227;47.810;8.810;2022-10-31T12:52:40;21.80;;;16.55;;
4428;SDS011;2227;47.810;8.810;2022-10-31T12:55:36;18.95;;;15.30;;
4428;SDS011;2227;47.810;8.810;2022-10-31T12:58:17;21.70;;;16.58;;
4428;SDS011;2227;47.810;8.810;2022-10-31T13:00:50;25.95;;;16.80;;
4428;SDS011;2227;47.810;8.810;2022-10-31T13:03:36;21.90;;;15.90;;
4428;SDS011;2227;47.810;8.810;2022-10-31T13:06:47;26.67;;;18.20;;
4428;SDS011;2227;47.810;8.810;2022-10-31T13:09:11;23.90;;;18.10;;
4428;SDS011;2227;47.810;8.810;2022-10-31T13:11:45;22.90;;;16.15;;
4428;SDS011;2227;47.810;8.810;2022-10-31T13:16:46;23.27;;;17.17;;
4428;SDS011;2227;47.810;8.810;2022-10-31T13:19:16;26.02;;;16.98;;
4428;SDS011;2227;47.810;8.810;2022-10-31T13:24:35;26.00;;;18.75;;
4428;SDS011;2227;47.810;8.810;2022-10-31T13:27:22;25.63;;;18.23;;
4428;SDS011;2227;47.810;8.810;2022-10-31T13:30:05;21.73;;;17.45;;
4428;SDS011;2227;47.810;8.810;2022-10-31T13:35:48;22.52;;;16.92;;
4428;SDS011;2227;47.810;8.810;2022-10-31T13:46:37;23.75;;;17.08;;
4428;SDS011;2227;47.810;8.810;2022-10-31T13:51:49;24.13;;;16.70;;
4428;SDS011;2227;47.810;8.810;2022-10-31T13:54:20;21.25;;;16.23;;
4428;SDS011;2227;47.810;8.810;2022-10-31T13:56:51;20.25;;;14.95;;
4428;SDS011;2227;47.810;8.810;2022-10-31T13:59:20;24.70;;;15.68;;
4428;SDS011;2227;47.810;8.810;2022-10-31T14:01:50;22.48;;;16.70;;
4428;SDS011;2227;47.810;8.810;2022-10-31T14:06:58;23.05;;;17.33;;
4428;SDS011;2227;47.810;8.810;2022-10-31T14:09:33;20.67;;;15.50;;
4428;SDS011;2227;47.810;8.810;2022-10-31T14:12:02;20.85;;;15.55;;
4428;SDS011;2227;47.810;8.810;2022-10-31T14:14:34;20.55;;;16.05;;
4428;SDS011;2227;47.810;8.810;2022-10-31T14:17:12;19.73;;;15.48;;
4428;SDS011;2227;47.810;8.810;2022-10-31T14:22:37;24.08;;;15.48;;
4428;SDS011;2227;47.810;8.810;2022-10-31T14:25:27;20.20;;;15.15;;
4428;SDS011;2227;47.810;8.810;2022-10-31T14:27:56;20.67;;;14.60;;
4428;SDS011;2227;47.810;8.810;2022-10-31T14:30:26;22.63;;;15.30;;
4428;SDS011;2227;47.810;8.810;2022-10-31T14:32:58;22.15;;;16.73;;
4428;SDS011;2227;47.810;8.810;2022-10-31T14:51:55;20.88;;;15.70;;
4428;SDS011;2227;47.810;8.810;2022-10-31T14:54:30;24.42;;;15.40;;
4428;SDS011;2227;47.810;8.810;2022-10-31T14:57:06;22.60;;;16.38;;
4428;SDS011;2227;47.810;8.810;2022-10-31T14:59:42;30.55;;;20.55;;
4428;SDS011;2227;47.810;8.810;2022-10-31T15:02:15;24.67;;;15.25;;
4428;SDS011;2227;47.810;8.810;2022-10-31T15:05:07;24.95;;;16.52;;
4428;SDS011;2227;47.810;8.810;2022-10-31T15:07:34;20.13;;;15.35;;
4428;SDS011;2227;47.810;8.810;2022-10-31T15:10:04;24.42;;;16.17;;
4428;SDS011;2227;47.810;8.810;2022-10-31T15:12:33;23.33;;;16.35;;
4428;SDS011;2227;47.810;8.810;2022-10-31T15:15:14;21.90;;;16.48;;
4428;SDS011;2227;47.810;8.810;2022-10-31T15:17:48;23.67;;;16.45;;
4428;SDS011;2227;47.810;8.810;2022-10-31T15:20:27;23.88;;;16.15;;
4428;SDS011;2227;47.810;8.810;2022-10-31T15:22:57;24.67;;;16.52;;
4428;SDS011;2227;47.810;8.810;2022-10-31T15:25:26;25.02;;;16.42;;
4428;SDS011;2227;47.810;8.810;2022-10-31T15:27:57;22.45;;;15.55;;
4428;SDS011;2227;47.810;8.810;2022-10-31T15:30:26;26.25;;;16.58;;
4428;SDS011;2227;47.810;8.810;2022-10-31T15:32:54;24.98;;;16.90;;
4428;SDS011;2227;47.810;8.810;2022-10-31T15:35:25;23.70;;;16.90;;
4428;SDS011;2227;47.810;8.810;2022-10-31T15:37:56;21.25;;;14.80;;
4428;SDS011;2227;47.810;8.810;2022-10-31T15:40:26;21.90;;;14.50;;
4428;SDS011;2227;47.810;8.810;2022-10-31T15:42:55;22.90;;;16.98;;
4428;SDS011;2227;47.810;8.810;2022-10-31T15:45:25;20.90;;;13.82;;
4428;SDS011;2227;47.810;8.810;2022-10-31T15:47:55;21.70;;;14.60;;
4428;SDS011;2227;47.810;8.810;2022-10-31T15:52:57;22.30;;;14.00;;
4428;SDS011;2227;47.810;8.810;2022-10-31T15:55:26;25.40;;;15.52;;
4428;SDS011;2227;47.810;8.810;2022-10-31T15:57:56;24.75;;;17.02;;
4428;SDS011;2227;47.810;8.810;2022-10-31T16:00:25;24.00;;;15.88;;
4428;SDS011;2227;47.810;8.810;2022-10-31T16:05:46;20.83;;;14.85;;
4428;SDS011;2227;47.810;8.810;2022-10-31T16:08:22;23.27;;;15.32;;
4428;SDS011;2227;47.810;8.810;2022-10-31T16:10:52;20.63;;;14.70;;
4428;SDS011;2227;47.810;8.810;2022-10-31T16:13:20;23.50;;;15.48;;
4428;SDS011;2227;47.810;8.810;2022-10-31T16:15:54;25.20;;;16.27;;
4428;SDS011;2227;47.810;8.810;2022-10-31T16:18:43;24.27;;;15.68;;
4428;SDS011;2227;47.810;8.810;2022-10-31T16:21:14;23.85;;;16.00;;
4428;SDS011;2227;47.810;8.810;2022-10-31T16:23:45;22.65;;;15.15;;
4428;SDS011;2227;47.810;8.810;2022-10-31T16:26:23;25.98;;;16.58;;
4428;SDS011;2227;47.810;8.810;2022-10-31T16:28:51;24.45;;;16.88;;
4428;SDS011;2227;47.810;8.810;2022-10-31T16:31:36;23.58;;;16.70;;
4428;SDS011;2227;47.810;8.810;2022-10-31T16:34:09;24.73;;;16.42;;
4428;SDS011;2227;47.810;8.810;2022-10-31T16:36:51;26.17;;;16.42;;
4428;SDS011;2227;47.810;8.810;2022-10-31T16:39:18;26.45;;;18.30;;
4428;SDS011;2227;47.810;8.810;2022-10-31T16:41:46;27.30;;;16.90;;
4428;SDS011;2227;47.810;8.810;2022-10-31T16:44:23;20.17;;;13.93;;
4428;SDS011;2227;47.810;8.810;2022-10-31T16:47:07;27.25;;;17.35;;
4428;SDS011;2227;47.810;8.810;2022-10-31T16:49:34;39.80;;;32.38;;
4428;SDS011;2227;47.810;8.810;2022-10-31T16:52:01;34.20;;;28.55;;
4428;SDS011;2227;47.810;8.810;2022-10-31T16:54:28;26.48;;;17.58;;
4428;SDS011;2227;47.810;8.810;2022-10-31T16:56:55;66.90;;;54.20;;
4428;SDS011;2227;47.810;8.810;2022-10-31T16:59:25;32.53;;;20.83;;
4428;SDS011;2227;47.810;8.810;2022-10-31T17:01:53;28.08;;;18.90;;
4428;SDS011;2227;47.810;8.810;2022-10-31T17:04:21;24.00;;;17.13;;
4428;SDS011;2227;47.810;8.810;2022-10-31T17:06:48;25.63;;;17.17;;
4428;SDS011;2227;47.810;8.810;2022-10-31T17:09:15;24.55;;;16.52;;
4428;SDS011;2227;47.810;8.810;2022-10-31T17:11:46;29.20;;;17.75;;
4428;SDS011;2227;47.810;8.810;2022-10-31T17:14:16;29.48;;;22.20;;
4428;SDS011;2227;47.810;8.810;2022-10-31T17:16:43;28.92;;;18.98;;
4428;SDS011;2227;47.810;8.810;2022-10-31T17:19:10;26.45;;;18.63;;
4428;SDS011;2227;47.810;8.810;2022-10-31T17:21:37;27.13;;;18.40;;
4428;SDS011;2227;47.810;8.810;2022-10-31T17:24:05;32.45;;;20.15;;
4428;SDS011;2227;47.810;8.810;2022-10-31T17:26:32;31.70;;;20.50;;
4428;SDS011;2227;47.810;8.810;2022-10-31T17:28:58;34.13;;;25.48;;
4428;SDS011;2227;47.810;8.810;2022-10-31T17:31:27;38.60;;;25.77;;
4428;SDS011;2227;47.810;8.810;2022-10-31T17:33:56;29.20;;;21.00;;
4428;SDS011;2227;47.810;8.810;2022-10-31T17:36:28;31.80;;;21.43;;
4428;SDS011;2227;47.810;8.810;2022-10-31T17:38:55;37.05;;;24.80;;
4428;SDS011;2227;47.810;8.810;2022-10-31T17:41:22;38.58;;;28.45;;
4428;SDS011;2227;47.810;8.810;2022-10-31T17:43:53;38.88;;;27.75;;
4428;SDS011;2227;47.810;8.810;2022-10-31T17:46:21;35.88;;;25.40;;
4428;SDS011;2227;47.810;8.810;2022-10-31T17:48:47;32.75;;;23.92;;
4428;SDS011;2227;47.810;8.810;2022-10-31T17:51:15;50.13;;;32.08;;
4428;SDS011;2227;47.810;8.810;2022-10-31T17:53:41;41.55;;;28.33;;
4428;SDS011;2227;47.810;8.810;2022-10-31T17:56:08;41.35;;;27.52;;
4428;SDS011;2227;47.810;8.810;2022-10-31T17:58:35;44.00;;;28.75;;
4428;SDS011;2227;47.810;8.810;2022-10-31T18:01:10;47.80;;;27.50;;
4428;SDS011;2227;47.810;8.810;2022-10-31T18:03:38;43.35;;;27.88;;
4428;SDS011;2227;47.810;8.810;2022-10-31T18:06:06;51.58;;;31.40;;
4428;SDS011;2227;47.810;8.810;2022-10-31T18:08:34;45.08;;;28.38;;
4428;SDS011;2227;47.810;8.810;2022-10-31T18:11:12;47.97;;;29.52;;
4428;SDS011;2227;47.810;8.810;2022-10-31T18:13:44;47.47;;;27.73;;
4428;SDS011;2227;47.810;8.810;2022-10-31T18:16:15;51.10;;;30.80;;
4428;SDS011;2227;47.810;8.810;2022-10-31T18:18:47;53.17;;;25.67;;
4428;SDS011;2227;47.810;8.810;2022-10-31T18:21:19;36.92;;;21.45;;
4428;SDS011;2227;47.810;8.810;2022-10-31T18:23:46;38.95;;;22.23;;
4428;SDS011;2227;47.810;8.810;2022-10-31T18:26:13;37.50;;;24.23;;
4428;SDS011;2227;47.810;8.810;2022-10-31T18:28:40;41.05;;;23.70;;
4428;SDS011;2227;47.810;8.810;2022-10-31T18:31:06;33.08;;;22.75;;
4428;SDS011;2227;47.810;8.810;2022-10-31T18:33:33;37.88;;;21.10;;
4428;SDS011;2227;47.810;8.810;2022-10-31T18:36:06;32.47;;;20.80;;
4428;SDS011;2227;47.810;8.810;2022-10-31T18:38:36;30.00;;;19.30;;
4428;SDS011;2227;47.810;8.810;2022-10-31T18:41:07;27.63;;;19.27;;
4428;SDS011;2227;47.810;8.810;2022-10-31T18:43:34;32.60;;;19.95;;
4428;SDS011;2227;47.810;8.810;2022-10-31T18:46:14;32.35;;;22.85;;
4428;SDS011;2227;47.810;8.810;2022-10-31T18:48:58;46.40;;;22.35;;
4428;SDS011;2227;47.810;8.810;2022-10-31T18:51:25;44.00;;;24.42;;
4428;SDS011;2227;47.810;8.810;2022-10-31T18:53:53;38.17;;;23.25;;
4428;SDS011;2227;47.810;8.810;2022-10-31T18:56:21;53.47;;;20.70;;
4428;SDS011;2227;47.810;8.810;2022-10-31T18:58:49;33.13;;;22.30;;
4428;SDS011;2227;47.810;8.810;2022-10-31T19:01:16;32.33;;;22.10;;
4428;SDS011;2227;47.810;8.810;2022-10-31T19:03:44;37.83;;;19.98;;
4428;SDS011;2227;47.810;8.810;2022-10-31T19:06:11;40.60;;;21.42;;
4428;SDS011;2227;47.810;8.810;2022-10-31T19:08:37;47.95;;;21.10;;
4428;SDS011;2227;47.810;8.810;2022-10-31T19:11:05;27.73;;;18.83;;
4428;SDS011;2227;47.810;8.810;2022-10-31T19:13:34;30.98;;;18.73;;
4428;SDS011;2227;47.810;8.810;2022-10-31T19:16:05;40.33;;;20.25;;
4428;SDS011;2227;47.810;8.810;2022-10-31T19:18:35;24.73;;;18.85;;
4428;SDS011;2227;47.810;8.810;2022-10-31T19:21:06;37.20;;;20.60;;
4428;SDS011;2227;47.810;8.810;2022-10-31T19:23:34;36.92;;;22.23;;
4428;SDS011;2227;47.810;8.810;2022-10-31T19:26:01;36.20;;;20.80;;
4428;SDS011;2227;47.810;8.810;2022-10-31T19:28:29;37.80;;;21.25;;
4428;SDS011;2227;47.810;8.810;2022-10-31T19:30:57;29.10;;;21.67;;
4428;SDS011;2227;47.810;8.810;2022-10-31T19:33:24;38.38;;;23.10;;
4428;SDS011;2227;47.810;8.810;2022-10-31T19:36:05;34.13;;;21.00;;
4428;SDS011;2227;47.810;8.810;2022-10-31T19:38:35;36.42;;;24.13;;
4428;SDS011;2227;47.810;8.810;2022-10-31T19:41:10;33.97;;;23.27;;
4428;SDS011;2227;47.810;8.810;2022-10-31T19:43:38;34.42;;;22.38;;
4428;SDS011;2227;47.810;8.810;2022-10-31T19:46:06;41.47;;;21.55;;
4428;SDS011;2227;47.810;8.810;2022-10-31T19:48:53;39.72;;;23.63;;
4428;SDS011;2227;47.810;8.810;2022-10-31T19:51:20;30.73;;;20.02;;
4428;SDS011;2227;47.810;8.810;2022-10-31T19:53:47;40.17;;;22.23;;
4428;SDS011;2227;47.810;8.810;2022-10-31T19:56:21;38.92;;;21.60;;
4428;SDS011;2227;47.810;8.810;2022-10-31T19:58:50;33.38;;;21.05;;
4428;SDS011;2227;47.810;8.810;2022-10-31T20:01:19;37.30;;;21.15;;
4428;SDS011;2227;47.810;8.810;2022-10-31T20:03:47;31.73;;;23.85;;
4428;SDS011;2227;47.810;8.810;2022-10-31T20:06:28;53.47;;;22.30;;
4428;SDS011;2227;47.810;8.810;2022-10-31T20:08:57;36.10;;;19.33;;
4428;SDS011;2227;47.810;8.810;2022-10-31T20:11:26;36.03;;;23.15;;
4428;SDS011;2227;47.810;8.810;2022-10-31T20:13:54;27.48;;;21.35;;
4428;SDS011;2227;47.810;8.810;2022-10-31T20:16:22;27.67;;;20.73;;
4428;SDS011;2227;47.810;8.810;2022-10-31T20:18:49;31.85;;;20.45;;
4428;SDS011;2227;47.810;8.810;2022-10-31T20:21:17;28.08;;;20.40;;
4428;SDS011;2227;47.810;8.810;2022-10-31T20:23:54;32.88;;;23.75;;
4428;SDS011;2227;47.810;8.810;2022-10-31T20:26:26;20.90;;;18.38;;
4428;SDS011;2227;47.810;8.810;2022-10-31T20:28:54;21.92;;;17.20;;
4428;SDS011;2227;47.810;8.810;2022-10-31T20:31:23;33.28;;;21.58;;
4428;SDS011;2227;47.810;8.810;2022-10-31T20:33:51;25.00;;;20.42;;
4428;SDS011;2227;47.810;8.810;2022-10-31T20:36:19;25.48;;;20.17;;
4428;SDS011;2227;47.810;8.810;2022-10-31T20:38:48;33.15;;;21.67;;
4428;SDS011;2227;47.810;8.810;2022-10-31T20:41:16;34.97;;;21.90;;
4428;SDS011;2227;47.810;8.810;2022-10-31T20:43:43;29.58;;;21.20;;
4428;SDS011;2227;47.810;8.810;2022-10-31T20:46:14;25.25;;;20.02;;
4428;SDS011;2227;47.810;8.810;2022-10-31T20:48:45;27.48;;;18.95;;
4428;SDS011;2227;47.810;8.810;2022-10-31T20:51:16;29.13;;;18.92;;
4428;SDS011;2227;47.810;8.810;2022-10-31T20:53:44;27.88;;;19.58;;
4428;SDS011;2227;47.810;8.810;2022-10-31T20:56:12;21.75;;;16.75;;
4428;SDS011;2227;47.810;8.810;2022-10-31T20:58:41;24.83;;;17.08;;
4428;SDS011;2227;47.810;8.810;2022-10-31T21:01:12;35.65;;;16.65;;
4428;SDS011;2227;47.810;8.810;2022-10-31T21:03:44;47.63;;;17.98;;
4428;SDS011;2227;47.810;8.810;2022-10-31T21:06:11;39.67;;;16.92;;
4428;SDS011;2227;47.810;8.810;2022-10-31T21:08:38;23.25;;;16.63;;
4428;SDS011;2227;47.810;8.810;2022-10-31T21:11:09;27.30;;;16.27;;
4428;SDS011;2227;47.810;8.810;2022-10-31T21:13:39;42.70;;;17.55;;
4428;SDS011;2227;47.810;8.810;2022-10-31T21:16:17;33.47;;;16.27;;
4428;SDS011;2227;47.810;8.810;2022-10-31T21:18:51;24.17;;;15.52;;
4428;SDS011;2227;47.810;8.810;2022-10-31T21:23:45;43.95;;;16.73;;
4428;SDS011;2227;47.810;8.810;2022-10-31T21:26:14;43.00;;;15.45;;
4428;SDS011;2227;47.810;8.810;2022-10-31T21:28:43;31.92;;;15.25;;
4428;SDS011;2227;47.810;8.810;2022-10-31T21:31:11;26.70;;;15.00;;
4428;SDS011;2227;47.810;8.810;2022-10-31T21:33:40;30.08;;;14.70;;
4428;SDS011;2227;47.810;8.810;2022-10-31T21:36:08;27.25;;;13.48;;
4428;SDS011;2227;47.810;8.810;2022-10-31T21:38:35;23.27;;;12.95;;
4428;SDS011;2227;47.810;8.810;2022-10-31T21:41:03;24.85;;;13.75;;
4428;SDS011;2227;47.810;8.810;2022-10-31T21:43:36;19.27;;;13.48;;
4428;SDS011;2227;47.810;8.810;2022-10-31T21:46:08;40.70;;;15.25;;
4428;SDS011;2227;47.810;8.810;2022-10-31T21:48:37;20.73;;;14.85;;
4428;SDS011;2227;47.810;8.810;2022-10-31T21:51:17;21.40;;;15.02;;